createdAt,value
2022-08-07T00:00:35.784Z,100497.94
2022-08-07T00:04:41.615Z,100502.94
2022-08-07T00:08:47.152Z,100497.91
2022-08-07T00:12:57.945Z,100492.91
2022-08-07T00:17:03.153Z,100491.25
2022-08-07T00:21:08.103Z,100488.44
2022-08-07T00:25:28.771Z,100473.94
2022-08-07T00:29:39.244Z,100484.19
2022-08-07T00:33:41.659Z,100487.25
2022-08-07T00:37:48.002Z,100472.78
2022-08-07T00:42:02.444Z,100473.34
2022-08-07T00:46:07.989Z,100466.63
2022-08-07T00:50:20.696Z,100477.44
2022-08-07T00:54:32.596Z,100473.25
2022-08-07T00:58:34.454Z,100466.00
2022-08-07T01:02:36.199Z,100464.31
2022-08-07T01:06:41.359Z,100464.00
2022-08-07T01:10:47.616Z,100460.09
2022-08-07T01:15:01.611Z,100460.91
2022-08-07T01:19:18.004Z,100460.06
2022-08-07T01:23:35.403Z,100459.16
2022-08-07T01:27:51.438Z,100458.03
2022-08-07T01:31:54.400Z,100460.75
2022-08-07T01:36:06.027Z,100462.66
2022-08-07T01:40:15.433Z,100460.13
2022-08-07T01:44:28.883Z,100464.78
2022-08-07T01:48:32.728Z,100465.84
2022-08-07T01:52:39.112Z,100462.78
2022-08-07T01:56:56.422Z,100449.94
2022-08-07T02:01:09.483Z,100459.38
2022-08-07T02:05:47.768Z,100444.91
2022-08-07T02:09:58.888Z,100446.84
2022-08-07T02:14:03.269Z,100450.22
2022-08-07T02:18:12.681Z,100445.19
2022-08-07T02:22:20.171Z,100435.75
2022-08-07T02:26:32.446Z,100434.38
2022-08-07T02:30:36.858Z,100439.94
2022-08-07T02:34:51.045Z,100437.16
2022-08-07T02:38:57.275Z,100431.91
2022-08-07T02:43:02.398Z,100432.16
2022-08-07T02:47:19.833Z,100430.47
2022-08-07T02:51:42.553Z,100432.69
2022-08-07T02:56:02.213Z,100425.72
2022-08-07T03:00:11.116Z,100424.06
2022-08-07T03:04:15.157Z,100422.38
2022-08-07T03:08:19.359Z,100427.31
2022-08-07T03:12:31.225Z,100421.16
2022-08-07T03:16:41.723Z,100429.19
2022-08-07T03:20:44.808Z,100420.31
2022-08-07T03:24:47.038Z,100417.72
2022-08-07T03:28:49.310Z,100424.63
2022-08-07T03:32:58.345Z,100419.38
2022-08-07T03:37:12.127Z,100413.25
2022-08-07T03:41:17.664Z,100410.44
2022-08-07T03:45:31.026Z,100412.03
2022-08-07T03:49:39.493Z,100413.16
2022-08-07T03:54:05.694Z,100415.94
2022-08-07T03:58:33.205Z,100419.22
2022-08-07T04:02:29.076Z,100412.84
2022-08-07T04:06:37.238Z,100420.06
2022-08-07T04:10:42.605Z,100424.19
2022-08-07T04:14:58.529Z,100426.38
2022-08-07T04:19:12.638Z,100430.25
2022-08-07T04:23:25.682Z,100430.56
2022-08-07T04:27:58.939Z,100432.25
2022-08-07T04:32:03.240Z,100428.63
2022-08-07T04:36:14.632Z,100445.03
2022-08-07T04:40:19.756Z,100452.25
2022-08-07T04:44:23.686Z,100440.91
2022-08-07T04:48:45.928Z,100444.25
2022-08-07T04:52:59.661Z,100445.91
2022-08-07T04:58:12.229Z,100455.91
2022-08-07T05:02:28.662Z,100455.06
2022-08-07T05:06:43.309Z,100462.81
2022-08-07T05:10:58.528Z,100464.22
2022-08-07T05:15:23.575Z,100458.47
2022-08-07T05:19:44.812Z,100463.81
2022-08-07T05:23:53.328Z,100465.25
2022-08-07T05:28:02.926Z,100475.59
2022-08-07T05:32:24.860Z,100472.88
2022-08-07T05:36:35.241Z,100484.59
2022-08-07T05:40:50.700Z,100482.94
2022-08-07T05:45:14.514Z,100486.06
2022-08-07T05:49:20.136Z,100492.81
2022-08-07T05:54:13.867Z,100493.16
2022-08-07T05:57:50.356Z,100497.41
2022-08-07T06:01:54.305Z,100495.28
2022-08-07T06:05:58.855Z,100497.31
2022-08-07T06:10:05.365Z,100504.34
2022-08-07T06:14:11.700Z,100503.00
2022-08-07T06:18:25.184Z,100507.25
2022-08-07T06:22:36.879Z,100506.22
2022-08-07T06:26:54.163Z,100508.81
2022-08-07T06:30:58.153Z,100517.22
2022-08-07T06:35:01.113Z,100513.09
2022-08-07T06:40:16.426Z,100514.81
2022-08-07T06:43:26.693Z,100518.22
2022-08-07T06:47:57.383Z,100513.75
2022-08-07T06:52:07.449Z,100499.88
2022-08-07T06:56:16.083Z,100507.94
2022-08-07T07:00:22.793Z,100496.53
2022-08-07T07:04:28.529Z,100502.59
2022-08-07T07:08:35.296Z,100498.94
2022-08-07T07:12:50.213Z,100496.88
2022-08-07T07:16:59.575Z,100502.34
2022-08-07T07:21:27.089Z,100507.53
2022-08-07T07:26:32.086Z,100507.66
2022-08-07T07:30:09.768Z,100503.31
2022-08-07T07:34:18.897Z,100496.28
2022-08-07T07:38:25.961Z,100496.31
2022-08-07T07:42:32.816Z,100501.47
2022-08-07T07:46:53.691Z,100494.47
2022-08-07T07:50:59.521Z,100493.09
2022-08-07T07:55:05.801Z,100484.75
2022-08-07T07:59:09.580Z,100486.31
2022-08-07T08:03:16.805Z,100487.53
2022-08-07T08:07:42.422Z,100478.19
2022-08-07T08:12:01.959Z,100477.44
2022-08-07T08:16:06.319Z,100482.59
2022-08-07T08:20:17.830Z,100473.78
2022-08-07T08:24:48.083Z,100472.84
2022-08-07T08:29:01.229Z,100471.34
2022-08-07T08:33:10.216Z,100464.13
2022-08-07T08:37:59.745Z,100469.50
2022-08-07T08:41:59.404Z,100452.81
2022-08-07T08:46:20.491Z,100460.47
2022-08-07T08:50:39.427Z,100461.31
2022-08-07T08:54:49.386Z,100449.16
2022-08-07T08:59:14.000Z,100455.69
2022-08-07T09:03:52.551Z,100454.06
2022-08-07T09:08:17.788Z,100441.53
2022-08-07T09:13:06.924Z,100439.72
2022-08-07T09:17:59.622Z,100444.69
2022-08-07T09:24:29.214Z,100444.69
2022-08-07T09:26:51.122Z,100441.22
2022-08-07T09:31:10.938Z,100429.22
2022-08-07T09:36:03.326Z,100423.53
2022-08-07T09:40:10.119Z,100428.00
2022-08-07T09:45:03.357Z,100419.81
2022-08-07T09:50:01.285Z,100416.09
2022-08-07T09:53:50.086Z,100402.75
2022-08-07T09:58:32.065Z,100399.88
2022-08-07T10:02:54.983Z,100384.84
2022-08-07T10:07:25.953Z,100388.44
2022-08-07T10:12:02.358Z,100385.22
2022-08-07T10:16:12.063Z,100382.94
2022-08-07T10:20:44.429Z,100377.78
2022-08-07T10:25:13.819Z,100374.47
2022-08-07T10:29:24.356Z,100362.94
2022-08-07T10:34:17.874Z,100369.44
2022-08-07T10:38:48.362Z,100368.91
2022-08-07T10:43:10.118Z,100362.41
2022-08-07T10:47:52.681Z,100360.03
2022-08-07T10:52:13.780Z,100346.47
2022-08-07T10:56:36.730Z,100362.50
2022-08-07T11:00:50.410Z,100359.34
2022-08-07T11:05:10.240Z,100334.53
2022-08-07T11:10:09.676Z,100327.75
2022-08-07T11:14:46.452Z,100331.50
2022-08-07T11:18:50.918Z,100325.63
2022-08-07T11:23:09.221Z,100317.50
2022-08-07T11:28:01.820Z,100322.69
2022-08-07T11:32:13.410Z,100312.66
2022-08-07T11:36:33.243Z,100304.34
2022-08-07T11:40:35.838Z,100290.22
2022-08-07T11:45:03.531Z,100297.00
2022-08-07T11:49:51.493Z,100287.31
2022-08-07T11:54:11.821Z,100287.47
2022-08-07T11:58:33.446Z,100280.91
2022-08-07T12:03:44.174Z,100273.63
2022-08-07T12:08:03.518Z,100278.09
2022-08-07T12:12:12.643Z,100268.66
2022-08-07T12:16:30.077Z,100262.16
2022-08-07T12:20:46.362Z,100272.19
2022-08-07T12:26:21.596Z,100256.81
2022-08-07T12:30:04.291Z,100254.34
2022-08-07T12:34:11.211Z,100246.59
2022-08-07T12:38:29.256Z,100237.09
2022-08-07T12:42:38.040Z,100244.59
2022-08-07T12:47:03.073Z,100229.88
2022-08-07T12:51:50.923Z,100224.16
2022-08-07T12:56:09.306Z,100221.50
2022-08-07T13:00:16.263Z,100232.47
2022-08-07T13:05:01.997Z,100228.66
2022-08-07T13:10:19.805Z,100218.75
2022-08-07T13:14:07.384Z,100207.97
2022-08-07T13:18:49.062Z,100205.66
2022-08-07T13:23:59.968Z,100205.22
2022-08-07T13:28:11.029Z,100209.03
2022-08-07T13:32:31.073Z,100187.03
2022-08-07T13:36:45.121Z,100186.25
2022-08-07T13:40:58.100Z,100191.34
2022-08-07T13:46:06.251Z,100172.84
2022-08-07T13:50:34.121Z,100170.06
2022-08-07T13:54:07.399Z,100173.66
2022-08-07T13:58:31.649Z,100165.28
2022-08-07T14:02:49.297Z,100151.47
2022-08-07T14:06:54.189Z,100152.84
2022-08-07T14:11:01.075Z,100160.69
2022-08-07T14:15:11.573Z,100147.59
2022-08-07T14:20:43.382Z,100143.47
2022-08-07T14:24:02.000Z,100142.28
2022-08-07T14:28:12.861Z,100127.00
2022-08-07T14:32:17.523Z,100141.22
2022-08-07T14:36:23.602Z,100134.66
2022-08-07T14:40:35.063Z,100124.28
2022-08-07T14:44:40.326Z,100125.31
2022-08-07T14:48:45.778Z,100124.44
2022-08-07T14:52:50.696Z,100124.56
2022-08-07T14:56:54.904Z,100111.63
2022-08-07T15:00:59.526Z,100111.00
2022-08-07T15:05:02.642Z,100122.75
2022-08-07T15:13:36.793Z,100110.97
2022-08-07T15:22:10.133Z,100112.81
2022-08-07T15:26:36.455Z,100107.53
2022-08-07T15:31:05.280Z,100102.75
2022-08-07T15:35:04.067Z,100103.84
2022-08-07T15:39:10.467Z,100105.84
2022-08-07T15:43:53.868Z,100109.78
2022-08-07T15:48:00.380Z,100095.09
2022-08-07T15:52:02.999Z,100084.97
2022-08-07T15:56:09.883Z,100086.72
2022-08-07T16:00:31.100Z,100084.72
2022-08-07T16:04:36.255Z,100081.22
2022-08-07T16:08:45.458Z,100078.47
2022-08-07T16:13:17.452Z,100063.66
2022-08-07T16:18:02.640Z,100065.59
2022-08-07T16:22:14.783Z,100068.28
2022-08-07T16:26:31.233Z,100065.69
2022-08-07T16:30:38.618Z,100072.38
2022-08-07T16:34:50.992Z,100065.38
2022-08-07T16:39:21.024Z,100063.53
2022-08-07T16:44:03.812Z,100076.31
2022-08-07T16:48:13.589Z,100069.97
2022-08-07T16:53:14.689Z,100074.69
2022-08-07T16:58:02.390Z,100077.66
2022-08-07T17:02:08.986Z,100073.00
2022-08-07T17:07:02.794Z,100069.47
2022-08-07T17:11:16.810Z,100069.63
2022-08-07T17:15:50.586Z,100071.28
2022-08-07T17:20:01.571Z,100070.94
2022-08-07T17:24:23.660Z,100074.03
2022-08-07T17:28:38.229Z,100078.44
2022-08-07T17:33:02.526Z,100084.16
2022-08-07T17:38:09.307Z,100079.94
2022-08-07T17:42:02.295Z,100086.31
2022-08-07T17:46:13.957Z,100086.06
2022-08-07T17:50:23.568Z,100083.34
2022-08-07T17:55:02.024Z,100086.66
2022-08-07T17:59:35.899Z,100087.34
2022-08-07T18:04:06.621Z,100086.06
2022-08-07T18:09:01.460Z,100093.25
2022-08-07T18:13:23.106Z,100090.91
2022-08-07T18:18:33.196Z,100098.56
2022-08-07T18:22:15.078Z,100096.03
2022-08-07T18:26:26.443Z,100101.94
2022-08-07T18:30:43.339Z,100113.91
2022-08-07T18:35:10.509Z,100110.41
2022-08-07T18:40:05.837Z,100122.88
2022-08-07T18:44:24.183Z,100125.38
2022-08-07T18:50:05.111Z,100126.06
2022-08-07T18:53:16.458Z,100129.88
2022-08-07T18:57:42.251Z,100132.63
2022-08-07T19:02:18.591Z,100139.09
2022-08-07T19:06:48.208Z,100142.59
2022-08-07T19:10:59.571Z,100141.91
2022-08-07T19:16:05.105Z,100157.09
2022-08-07T19:20:29.833Z,100152.25
2022-08-07T19:24:44.381Z,100162.41
2022-08-07T19:30:54.295Z,100173.88
2022-08-07T19:33:16.805Z,100182.03
2022-08-07T19:37:22.352Z,100181.94
2022-08-07T19:41:44.489Z,100177.88
2022-08-07T19:46:07.627Z,100190.59
2022-08-07T19:50:43.688Z,100203.34
2022-08-07T19:54:45.322Z,100196.41
2022-08-07T19:59:00.807Z,100204.25
2022-08-07T20:03:32.755Z,100206.44
2022-08-07T20:07:46.142Z,100215.09
2022-08-07T20:12:23.395Z,100205.53
2022-08-07T20:16:34.922Z,100210.50
2022-08-07T20:20:39.545Z,100213.81
2022-08-07T20:24:47.329Z,100212.75
2022-08-07T20:28:53.897Z,100206.41
2022-08-07T20:32:59.874Z,100209.63
2022-08-07T20:37:03.304Z,100224.88
2022-08-07T20:41:08.195Z,100214.63
2022-08-07T20:45:33.184Z,100223.63
2022-08-07T20:50:00.532Z,100226.00
2022-08-07T20:54:11.788Z,100227.84
2022-08-07T20:58:19.557Z,100219.84
2022-08-07T21:02:53.828Z,100213.78
2022-08-07T21:07:04.522Z,100212.59
2022-08-07T21:11:22.138Z,100210.81
2022-08-07T21:15:58.669Z,100206.50
2022-08-07T21:20:09.829Z,100208.34
2022-08-07T21:24:20.835Z,100204.50
2022-08-07T21:28:49.215Z,100207.66
2022-08-07T21:33:03.183Z,100207.22
2022-08-07T21:37:10.316Z,100208.34
2022-08-07T21:41:52.175Z,100206.38
2022-08-07T21:46:24.475Z,100202.75
2022-08-07T21:50:45.549Z,100211.66
2022-08-07T21:55:19.386Z,100210.91
2022-08-07T22:00:05.570Z,100205.31
2022-08-07T22:04:20.200Z,100217.09
2022-08-07T22:08:26.196Z,100205.69
2022-08-07T22:12:34.995Z,100212.50
2022-08-07T22:16:53.060Z,100208.66
2022-08-07T22:21:06.604Z,100215.97
2022-08-07T22:25:19.855Z,100212.94
2022-08-07T22:29:49.589Z,100210.72
2022-08-07T22:33:59.325Z,100221.88
2022-08-07T22:38:20.492Z,100230.06
2022-08-07T22:42:30.455Z,100230.66
2022-08-07T22:47:08.703Z,100231.84
2022-08-07T22:51:38.034Z,100227.97
2022-08-07T22:55:59.701Z,100228.28
2022-08-07T23:00:28.761Z,100227.75
2022-08-07T23:04:33.605Z,100236.44
2022-08-07T23:08:58.572Z,100230.91
2022-08-07T23:13:49.045Z,100230.91
2022-08-07T23:18:20.827Z,100221.47
2022-08-07T23:22:32.437Z,100230.44
2022-08-07T23:27:02.983Z,100222.41
2022-08-07T23:34:21.734Z,100225.28
2022-08-07T23:36:22.882Z,100217.72
2022-08-07T23:41:07.966Z,100219.09
2022-08-07T23:46:01.610Z,100219.75
2022-08-07T23:50:01.019Z,100215.34
2022-08-07T23:54:28.452Z,100216.75
2022-08-07T23:58:55.875Z,100216.53
